createdAt,value
2024-01-16T00:00:50.303Z,98158.25
2024-01-16T00:01:52.552Z,98157.23
2024-01-16T00:02:54.740Z,98158.73
2024-01-16T00:03:56.910Z,98163.00
2024-01-16T00:04:59.127Z,98162.16
2024-01-16T00:06:01.491Z,98168.33
2024-01-16T00:07:04.893Z,98171.95
2024-01-16T00:08:07.006Z,98180.59
2024-01-16T00:09:09.578Z,98174.56
2024-01-16T00:10:11.982Z,98177.17
2024-01-16T00:11:14.345Z,98171.18
2024-01-16T00:12:16.479Z,98173.89
2024-01-16T00:13:18.855Z,98168.75
2024-01-16T00:14:21.027Z,98165.33
2024-01-16T00:15:23.056Z,98173.97
2024-01-16T00:16:25.790Z,98168.86
2024-01-16T00:17:27.838Z,98167.09
2024-01-16T00:18:30.163Z,98161.04
2024-01-16T00:19:32.463Z,98158.43
2024-01-16T00:20:35.046Z,98157.52
2024-01-16T00:21:44.808Z,98151.34
2024-01-16T00:22:47.086Z,98154.80
2024-01-16T00:23:49.264Z,98141.77
2024-01-16T00:24:51.273Z,98148.67
2024-01-16T00:25:53.497Z,98150.50
2024-01-16T00:26:55.906Z,98153.03
2024-01-16T00:27:58.014Z,98155.64
2024-01-16T00:29:00.322Z,98159.09
2024-01-16T00:30:02.676Z,98164.95
2024-01-16T00:31:08.030Z,98164.13
2024-01-16T00:32:10.423Z,98158.92
2024-01-16T00:33:12.833Z,98153.70
2024-01-16T00:34:14.988Z,98157.05
2024-01-16T00:35:17.670Z,98159.73
2024-01-16T00:36:21.668Z,98150.25
2024-01-16T00:37:23.809Z,98156.31
2024-01-16T00:38:26.007Z,98158.25
2024-01-16T00:39:28.168Z,98160.12
2024-01-16T00:40:30.411Z,98156.73
2024-01-16T00:41:32.839Z,98154.42
2024-01-16T00:42:35.646Z,98145.68
2024-01-16T00:43:37.792Z,98150.89
2024-01-16T00:44:40.216Z,98149.20
2024-01-16T00:45:42.521Z,98145.75
2024-01-16T00:46:45.703Z,98136.17
2024-01-16T00:47:48.288Z,98134.59
2024-01-16T00:48:50.710Z,98134.59
2024-01-16T00:49:53.304Z,98137.09
2024-01-16T00:50:55.654Z,98136.09
2024-01-16T00:51:57.926Z,98138.03
2024-01-16T00:53:00.160Z,98139.98
2024-01-16T00:54:02.648Z,98149.73
2024-01-16T00:55:05.731Z,98146.50
2024-01-16T00:56:08.538Z,98154.31
2024-01-16T00:57:10.757Z,98150.94
2024-01-16T00:58:13.426Z,98152.91
2024-01-16T00:59:15.615Z,98148.78
2024-01-16T01:00:18.356Z,98143.67
2024-01-16T01:01:20.882Z,98151.50
2024-01-16T01:02:23.022Z,98156.95
2024-01-16T01:03:25.213Z,98157.91
2024-01-16T01:04:27.395Z,98150.16
2024-01-16T01:05:30.055Z,98146.73
2024-01-16T01:06:32.845Z,98151.84
2024-01-16T01:07:34.997Z,98148.50
2024-01-16T01:08:37.179Z,98144.94
2024-01-16T01:09:39.417Z,98144.88
2024-01-16T01:10:41.649Z,98143.01
2024-01-16T01:11:43.851Z,98148.12
2024-01-16T01:12:46.001Z,98140.30
2024-01-16T01:13:48.266Z,98136.60
2024-01-16T01:14:50.804Z,98136.50
2024-01-16T01:15:53.280Z,98137.27
2024-01-16T01:16:55.686Z,98138.85
2024-01-16T01:17:57.983Z,98136.14
2024-01-16T01:19:00.703Z,98141.46
2024-01-16T01:20:04.130Z,98134.56
2024-01-16T01:21:06.540Z,98132.91
2024-01-16T01:22:08.688Z,98135.51
2024-01-16T01:23:11.195Z,98133.08
2024-01-16T01:24:13.516Z,98132.23
2024-01-16T01:25:15.681Z,98133.89
2024-01-16T01:26:19.096Z,98125.33
2024-01-16T01:27:21.427Z,98129.80
2024-01-16T01:28:23.577Z,98129.06
2024-01-16T01:29:25.875Z,98130.08
2024-01-16T01:30:28.215Z,98123.92
2024-01-16T01:31:30.691Z,98130.90
2024-01-16T01:32:32.881Z,98128.29
2024-01-16T01:33:35.175Z,98131.67
2024-01-16T01:34:37.438Z,98130.90
2024-01-16T01:35:39.607Z,98140.50
2024-01-16T01:36:42.019Z,98156.21
2024-01-16T01:37:44.175Z,98152.69
2024-01-16T01:38:46.457Z,98145.61
2024-01-16T01:39:48.521Z,98148.95
2024-01-16T01:40:50.742Z,98140.13
2024-01-16T01:41:52.974Z,98140.05
2024-01-16T01:42:55.245Z,98140.05
2024-01-16T01:43:57.461Z,98146.28
2024-01-16T01:44:59.816Z,98141.08
2024-01-16T01:46:19.696Z,98139.31
2024-01-16T01:47:22.279Z,98148.89
2024-01-16T01:48:24.759Z,98156.78
2024-01-16T01:49:28.361Z,98163.75
2024-01-16T01:50:30.699Z,98170.75
2024-01-16T01:51:34.271Z,98171.56
2024-01-16T01:52:41.541Z,98170.83
2024-01-16T01:53:45.383Z,98173.43
2024-01-16T01:54:49.311Z,98174.17
2024-01-16T01:55:51.700Z,98168.96
2024-01-16T01:56:54.345Z,98179.38
2024-01-16T01:57:56.628Z,98185.27
2024-01-16T01:58:58.885Z,98186.01
2024-01-16T02:00:01.676Z,98191.89
2024-01-16T02:01:06.726Z,98196.19
2024-01-16T02:02:09.174Z,98197.03
2024-01-16T02:03:11.468Z,98195.23
2024-01-16T02:04:15.111Z,98193.48
2024-01-16T02:05:17.976Z,98190.80
2024-01-16T02:06:21.474Z,98185.48
2024-01-16T02:07:24.228Z,98181.96
2024-01-16T02:08:26.626Z,98178.33
2024-01-16T02:09:28.751Z,98184.22
2024-01-16T02:10:31.954Z,98179.81
2024-01-16T02:11:34.202Z,98175.45
2024-01-16T02:12:36.467Z,98176.19
2024-01-16T02:13:38.605Z,98177.03
2024-01-16T02:14:40.751Z,98161.32
2024-01-16T02:15:43.243Z,98168.97
2024-01-16T02:16:45.494Z,98161.14
2024-01-16T02:17:48.545Z,98159.27
2024-01-16T02:18:51.643Z,98164.48
2024-01-16T02:19:53.866Z,98166.14
2024-01-16T02:21:04.679Z,98159.27
2024-01-16T02:22:09.798Z,98166.14
2024-01-16T02:23:14.290Z,98154.80
2024-01-16T02:24:17.147Z,98163.47
2024-01-16T02:25:19.440Z,98164.38
2024-01-16T02:26:23.510Z,98159.94
2024-01-16T02:27:25.712Z,98159.09
2024-01-16T02:28:27.830Z,98155.54
2024-01-16T02:29:30.024Z,98161.52
2024-01-16T02:30:32.399Z,98159.73
2024-01-16T02:31:34.739Z,98155.36
2024-01-16T02:32:36.976Z,98164.02
2024-01-16T02:33:39.313Z,98160.50
2024-01-16T02:34:41.643Z,98158.81
2024-01-16T02:35:43.929Z,98156.13
2024-01-16T02:36:46.177Z,98161.23
2024-01-16T02:37:48.302Z,98151.66
2024-01-16T02:38:50.537Z,98158.53
2024-01-16T02:39:52.823Z,98161.98
2024-01-16T02:40:55.100Z,98158.53
2024-01-16T02:41:57.446Z,98160.32
2024-01-16T02:42:59.603Z,98165.61
2024-01-16T02:44:01.756Z,98159.55
2024-01-16T02:45:05.550Z,98168.33
2024-01-16T02:46:08.107Z,98167.38
2024-01-16T02:47:10.295Z,98158.81
2024-01-16T02:48:12.574Z,98160.58
2024-01-16T02:49:14.885Z,98167.66
2024-01-16T02:50:18.622Z,98166.81
2024-01-16T02:51:20.704Z,98170.16
2024-01-16T02:52:22.810Z,98168.33
2024-01-16T02:53:24.998Z,98171.84
2024-01-16T02:54:27.248Z,98170.16
2024-01-16T02:55:29.420Z,98175.58
2024-01-16T02:56:31.699Z,98177.23
2024-01-16T02:57:34.126Z,98168.67
2024-01-16T02:58:38.084Z,98181.61
2024-01-16T02:59:40.313Z,98170.44
2024-01-16T03:00:42.667Z,98178.19
2024-01-16T03:01:44.738Z,98169.52
2024-01-16T03:02:47.187Z,98161.59
2024-01-16T03:03:49.561Z,98170.16
2024-01-16T03:04:51.889Z,98164.13
2024-01-16T03:05:54.113Z,98168.39
2024-01-16T03:06:56.771Z,98159.73
2024-01-16T03:07:59.109Z,98159.73
2024-01-16T03:09:01.241Z,98167.55
2024-01-16T03:10:04.545Z,98165.05
2024-01-16T03:11:06.821Z,98164.95
2024-01-16T03:12:09.139Z,98164.95
2024-01-16T03:13:11.302Z,98164.20
2024-01-16T03:14:13.408Z,98169.42
2024-01-16T03:15:15.612Z,98159.84
2024-01-16T03:16:18.493Z,98166.63
2024-01-16T03:17:21.109Z,98167.48
2024-01-16T03:18:24.043Z,98172.77
2024-01-16T03:19:26.358Z,98173.79
2024-01-16T03:20:29.225Z,98180.87
2024-01-16T03:21:31.632Z,98175.77
2024-01-16T03:22:33.786Z,98173.33
2024-01-16T03:23:35.962Z,98174.17
2024-01-16T03:24:38.108Z,98179.46
2024-01-16T03:25:40.318Z,98175.09
2024-01-16T03:26:42.861Z,98183.09
2024-01-16T03:27:45.096Z,98177.88
2024-01-16T03:28:47.269Z,98178.90
2024-01-16T03:29:49.481Z,98177.98
2024-01-16T03:30:52.009Z,98174.42
2024-01-16T03:31:54.366Z,98171.81
2024-01-16T03:32:56.442Z,98175.45
2024-01-16T03:33:58.817Z,98185.03
2024-01-16T03:35:01.129Z,98178.05
2024-01-16T03:36:05.503Z,98183.38
2024-01-16T03:37:07.686Z,98188.59
2024-01-16T03:38:09.791Z,98189.50
2024-01-16T03:39:12.002Z,98185.20
2024-01-16T03:40:14.876Z,98180.94
2024-01-16T03:41:17.169Z,98181.78
2024-01-16T03:42:19.705Z,98173.13
2024-01-16T03:43:21.856Z,98174.88
2024-01-16T03:44:24.233Z,98176.64
2024-01-16T03:45:26.486Z,98172.38
2024-01-16T03:46:28.742Z,98165.38
2024-01-16T03:47:30.861Z,98169.67
2024-01-16T03:48:33.089Z,98167.06
2024-01-16T03:49:35.372Z,98167.91
2024-01-16T03:50:37.699Z,98167.73
2024-01-16T03:51:40.034Z,98165.87
2024-01-16T03:52:42.210Z,98167.38
2024-01-16T03:53:44.425Z,98171.64
2024-01-16T03:54:46.665Z,98173.41
2024-01-16T03:55:49.076Z,98168.12
2024-01-16T03:56:51.623Z,98162.16
2024-01-16T03:57:53.797Z,98166.42
2024-01-16T03:58:55.946Z,98162.98
2024-01-16T03:59:58.110Z,98161.32
2024-01-16T04:01:00.417Z,98157.02
2024-01-16T04:02:02.837Z,98162.16
2024-01-16T04:03:05.006Z,98163.64
2024-01-16T04:04:07.319Z,98173.05
2024-01-16T04:05:09.833Z,98166.98
2024-01-16T04:06:19.746Z,98167.94
2024-01-16T04:07:23.864Z,98157.69
2024-01-16T04:08:26.154Z,98150.71
2024-01-16T04:09:28.354Z,98148.18
2024-01-16T04:10:30.442Z,98146.52
2024-01-16T04:11:32.766Z,98157.94
2024-01-16T04:12:35.050Z,98150.33
2024-01-16T04:13:37.108Z,98156.46
2024-01-16T04:14:39.167Z,98153.85
2024-01-16T04:15:41.184Z,98155.61
2024-01-16T04:16:43.499Z,98158.33
2024-01-16T04:17:45.709Z,98159.14
2024-01-16T04:18:47.856Z,98154.95
2024-01-16T04:19:50.066Z,98153.19
2024-01-16T04:20:52.758Z,98155.05
2024-01-16T04:21:54.995Z,98149.91
2024-01-16T04:22:57.348Z,98148.44
2024-01-16T04:23:59.512Z,98153.82
2024-01-16T04:25:01.820Z,98154.00
2024-01-16T04:26:04.560Z,98155.02
2024-01-16T04:27:06.764Z,98160.33
2024-01-16T04:28:09.056Z,98160.33
2024-01-16T04:29:11.098Z,98166.36
2024-01-16T04:30:15.526Z,98171.50
2024-01-16T04:31:17.983Z,98177.55
2024-01-16T04:32:20.431Z,98178.30
2024-01-16T04:33:22.892Z,98174.77
2024-01-16T04:34:25.298Z,98178.19
2024-01-16T04:35:27.601Z,98176.36
2024-01-16T04:36:30.111Z,98174.59
2024-01-16T04:37:32.361Z,98168.36
2024-01-16T04:38:34.633Z,98176.19
2024-01-16T04:39:36.891Z,98178.02
2024-01-16T04:40:39.133Z,98178.19
2024-01-16T04:41:41.198Z,98178.40
2024-01-16T04:42:43.434Z,98180.05
2024-01-16T04:43:45.736Z,98179.48
2024-01-16T04:44:47.919Z,98175.19
2024-01-16T04:45:50.106Z,98177.05
2024-01-16T04:46:52.398Z,98177.16
2024-01-16T04:47:54.618Z,98172.02
2024-01-16T04:48:56.855Z,98174.72
2024-01-16T04:49:59.073Z,98173.03
2024-01-16T04:51:01.665Z,98176.48
2024-01-16T04:52:05.547Z,98176.59
2024-01-16T04:53:07.742Z,98181.87
2024-01-16T04:54:11.592Z,98187.18
2024-01-16T04:55:14.370Z,98192.46
2024-01-16T04:56:17.766Z,98182.98
2024-01-16T04:57:19.816Z,98186.41
2024-01-16T04:58:21.968Z,98189.69
2024-01-16T04:59:24.142Z,98186.06
2024-01-16T05:00:27.043Z,98184.20
2024-01-16T05:01:29.160Z,98184.87
2024-01-16T05:02:31.346Z,98180.41
2024-01-16T05:03:33.593Z,98179.48
2024-01-16T05:04:38.094Z,98180.41
2024-01-16T05:05:40.474Z,98177.90
2024-01-16T05:06:43.788Z,98179.59
2024-01-16T05:07:46.150Z,98183.85
2024-01-16T05:08:48.509Z,98184.42
2024-01-16T05:09:50.638Z,98185.20
2024-01-16T05:10:53.003Z,98183.33
2024-01-16T05:11:55.196Z,98182.31
2024-01-16T05:12:57.169Z,98189.95
2024-01-16T05:13:59.322Z,98189.00
2024-01-16T05:15:01.387Z,98189.00
2024-01-16T05:16:06.431Z,98192.28
2024-01-16T05:17:09.630Z,98189.78
2024-01-16T05:18:11.851Z,98189.78
2024-01-16T05:19:14.269Z,98189.67
2024-01-16T05:20:18.436Z,98184.56
2024-01-16T05:21:21.456Z,98189.11
2024-01-16T05:22:23.568Z,98193.66
2024-01-16T05:23:25.845Z,98191.15
2024-01-16T05:24:28.102Z,98189.39
2024-01-16T05:25:30.347Z,98185.02
2024-01-16T05:26:32.640Z,98189.22
2024-01-16T05:27:35.175Z,98187.34
2024-01-16T05:28:37.437Z,98187.34
2024-01-16T05:29:44.297Z,98195.17
2024-01-16T05:30:45.890Z,98184.74
2024-01-16T05:31:48.354Z,98194.50
2024-01-16T05:32:50.519Z,98190.98
2024-01-16T05:33:52.839Z,98192.63
2024-01-16T05:34:55.090Z,98187.52
2024-01-16T05:36:00.028Z,98194.50
2024-01-16T05:37:02.378Z,98201.30
2024-01-16T05:38:04.838Z,98198.62
2024-01-16T05:39:07.112Z,98194.22
2024-01-16T05:40:10.599Z,98193.30
2024-01-16T05:41:13.871Z,98197.60
2024-01-16T05:42:16.026Z,98198.34
2024-01-16T05:43:18.185Z,98201.80
2024-01-16T05:44:20.226Z,98207.00
2024-01-16T05:45:22.398Z,98205.31
2024-01-16T05:46:24.782Z,98208.09
2024-01-16T05:47:27.025Z,98209.78
2024-01-16T05:48:29.337Z,98207.08
2024-01-16T05:49:31.676Z,98209.51
2024-01-16T05:50:35.530Z,98191.27
2024-01-16T05:51:37.802Z,98202.46
2024-01-16T05:52:41.308Z,98206.73
2024-01-16T05:53:45.206Z,98210.00
2024-01-16T05:54:47.548Z,98218.67
2024-01-16T05:55:49.809Z,98211.77
2024-01-16T05:56:52.215Z,98209.09
2024-01-16T05:57:54.459Z,98210.84
2024-01-16T05:58:56.627Z,98206.48
2024-01-16T05:59:58.959Z,98219.41
2024-01-16T06:01:01.251Z,98219.23
2024-01-16T06:02:03.881Z,98219.91
2024-01-16T06:03:06.206Z,98215.50
2024-01-16T06:04:09.127Z,98213.84
2024-01-16T06:05:16.019Z,98215.61
2024-01-16T06:06:19.322Z,98215.61
2024-01-16T06:07:21.519Z,98213.91
2024-01-16T06:08:23.726Z,98214.69
2024-01-16T06:09:25.981Z,98222.23
2024-01-16T06:10:28.419Z,98217.76
2024-01-16T06:11:33.804Z,98213.28
2024-01-16T06:12:36.308Z,98215.82
2024-01-16T06:13:39.283Z,98217.58
2024-01-16T06:14:41.585Z,98222.80
2024-01-16T06:15:43.965Z,98228.11
2024-01-16T06:16:46.957Z,98229.77
2024-01-16T06:17:49.323Z,98218.42
2024-01-16T06:18:52.005Z,98227.83
2024-01-16T06:19:54.500Z,98228.68
2024-01-16T06:20:56.768Z,98225.13
2024-01-16T06:21:59.716Z,98223.18
2024-01-16T06:23:02.080Z,98224.77
2024-01-16T06:24:04.402Z,98227.38
2024-01-16T06:25:07.215Z,98231.56
2024-01-16T06:26:10.856Z,98229.80
2024-01-16T06:27:13.027Z,98228.05
2024-01-16T06:28:15.531Z,98233.08
2024-01-16T06:29:24.902Z,98235.51
2024-01-16T06:30:22.909Z,98236.25
2024-01-16T06:31:25.465Z,98245.55
2024-01-16T06:32:27.806Z,98235.78
2024-01-16T06:33:30.474Z,98240.08
2024-01-16T06:34:33.330Z,98240.75
2024-01-16T06:35:35.591Z,98242.23
2024-01-16T06:36:37.908Z,98240.36
2024-01-16T06:37:39.966Z,98236.90
2024-01-16T06:38:42.446Z,98242.12
2024-01-16T06:39:44.810Z,98236.90
2024-01-16T06:40:46.996Z,98243.98
2024-01-16T06:41:49.369Z,98248.36
2024-01-16T06:42:51.736Z,98243.25
2024-01-16T06:43:53.953Z,98237.19
2024-01-16T06:44:56.420Z,98245.75
2024-01-16T06:45:58.691Z,98242.23
2024-01-16T06:47:00.932Z,98244.84
2024-01-16T06:48:04.075Z,98242.23
2024-01-16T06:49:06.732Z,98237.85
2024-01-16T06:50:10.270Z,98252.48
2024-01-16T06:51:12.524Z,98239.44
2024-01-16T06:52:14.885Z,98246.34
2024-01-16T06:53:17.614Z,98241.02
2024-01-16T06:54:19.818Z,98239.25
2024-01-16T06:55:22.286Z,98246.13
2024-01-16T06:56:24.521Z,98240.73
2024-01-16T06:57:26.722Z,98244.92
2024-01-16T06:58:28.842Z,98251.83
2024-01-16T06:59:31.143Z,98245.69
2024-01-16T07:00:33.706Z,98242.98
2024-01-16T07:01:35.948Z,98242.98
2024-01-16T07:02:38.523Z,98241.95
2024-01-16T07:03:40.859Z,98243.64
2024-01-16T07:04:43.161Z,98248.75
2024-01-16T07:05:45.921Z,98241.77
2024-01-16T07:06:49.243Z,98240.08
2024-01-16T07:07:51.566Z,98235.81
2024-01-16T07:08:53.841Z,98238.31
2024-01-16T07:09:56.186Z,98245.22
2024-01-16T07:10:58.791Z,98247.72
2024-01-16T07:12:01.010Z,98245.11
2024-01-16T07:13:03.644Z,98246.80
2024-01-16T07:14:07.804Z,98253.79
2024-01-16T07:15:10.798Z,98253.05
2024-01-16T07:16:14.109Z,98247.91
2024-01-16T07:17:16.715Z,98259.30
2024-01-16T07:18:19.285Z,98251.66
2024-01-16T07:19:21.855Z,98237.86
2024-01-16T07:20:24.163Z,98247.35
2024-01-16T07:21:26.384Z,98244.74
2024-01-16T07:22:28.582Z,98243.82
2024-01-16T07:23:31.169Z,98248.94
2024-01-16T07:24:33.618Z,98259.19
2024-01-16T07:25:35.886Z,98240.19
2024-01-16T07:26:38.171Z,98249.78
2024-01-16T07:27:40.409Z,98254.16
2024-01-16T07:28:43.011Z,98252.50
2024-01-16T07:29:45.362Z,98257.05
2024-01-16T07:30:48.421Z,98255.47
2024-01-16T07:31:50.573Z,98241.68
2024-01-16T07:32:52.935Z,98249.52
2024-01-16T07:33:55.484Z,98254.73
2024-01-16T07:34:57.876Z,98244.37
2024-01-16T07:36:00.396Z,98247.08
2024-01-16T07:37:02.998Z,98243.52
2024-01-16T07:38:05.819Z,98245.31
2024-01-16T07:39:08.256Z,98250.72
2024-01-16T07:40:11.623Z,98239.51
2024-01-16T07:41:13.812Z,98253.41
2024-01-16T07:42:16.059Z,98255.09
2024-01-16T07:43:18.294Z,98252.38
2024-01-16T07:44:20.543Z,98259.28
2024-01-16T07:45:23.048Z,98260.38
2024-01-16T07:46:25.381Z,98254.35
2024-01-16T07:47:27.503Z,98258.80
2024-01-16T07:48:29.875Z,98261.52
2024-01-16T07:49:32.813Z,98258.17
2024-01-16T07:50:35.277Z,98258.34
2024-01-16T07:51:37.805Z,98250.59
2024-01-16T07:52:39.980Z,98259.19
2024-01-16T07:53:42.464Z,98259.93
2024-01-16T07:54:46.844Z,98253.02
2024-01-16T07:55:48.985Z,98259.93
2024-01-16T07:56:51.637Z,98256.30
2024-01-16T07:57:54.913Z,98258.80
2024-01-16T07:58:57.529Z,98268.50
2024-01-16T07:59:59.868Z,98260.95
2024-01-16T08:01:02.297Z,98266.35
2024-01-16T08:02:05.141Z,98263.81
2024-01-16T08:03:09.078Z,98256.83
2024-01-16T08:04:11.377Z,98257.78
2024-01-16T08:05:13.770Z,98265.50
2024-01-16T08:06:17.281Z,98261.13
2024-01-16T08:07:19.890Z,98264.48
2024-01-16T08:08:22.073Z,98265.99
2024-01-16T08:09:24.243Z,98257.14
2024-01-16T08:10:26.562Z,98270.82
2024-01-16T08:11:29.093Z,98275.30
2024-01-16T08:12:31.304Z,98283.48
2024-01-16T08:13:33.958Z,98268.04
2024-01-16T08:14:36.164Z,98268.11
2024-01-16T08:15:39.468Z,98269.80
2024-01-16T08:16:42.501Z,98267.20
2024-01-16T08:17:44.857Z,98261.13
2024-01-16T08:19:57.582Z,98271.67
2024-01-16T08:20:59.812Z,98274.17
2024-01-16T08:22:02.719Z,98270.05
2024-01-16T08:23:04.968Z,98272.03
2024-01-16T08:24:07.554Z,98272.03
2024-01-16T08:25:09.696Z,98258.21
2024-01-16T08:26:12.084Z,98269.42
2024-01-16T08:27:14.635Z,98269.59
2024-01-16T08:28:17.473Z,98274.89
2024-01-16T08:29:20.606Z,98285.25
2024-01-16T08:30:23.783Z,98267.84
2024-01-16T08:31:26.046Z,98273.13
2024-01-16T08:32:28.415Z,98272.03
2024-01-16T08:33:37.214Z,98270.16
2024-01-16T08:34:35.046Z,98274.36
2024-01-16T08:35:37.723Z,98283.77
2024-01-16T08:36:40.125Z,98276.86
2024-01-16T08:37:42.494Z,98271.75
2024-01-16T08:38:44.882Z,98274.17
2024-01-16T08:39:50.559Z,98270.65
2024-01-16T08:40:53.284Z,98272.23
2024-01-16T08:41:56.281Z,98268.50
2024-01-16T08:42:58.595Z,98270.08
2024-01-16T08:44:00.892Z,98266.38
2024-01-16T08:45:03.715Z,98273.17
2024-01-16T08:46:06.090Z,98272.44
2024-01-16T08:47:08.442Z,98275.97
2024-01-16T08:48:10.670Z,98266.45
2024-01-16T08:49:13.429Z,98279.42
2024-01-16T08:50:16.833Z,98270.56
2024-01-16T08:51:18.961Z,98275.68
2024-01-16T08:52:21.155Z,98274.77
2024-01-16T08:53:23.464Z,98273.73
2024-01-16T08:54:25.872Z,98273.63
2024-01-16T08:55:28.459Z,98280.44
2024-01-16T08:56:31.390Z,98298.52
2024-01-16T08:57:33.891Z,98280.25
2024-01-16T08:58:36.041Z,98283.70
2024-01-16T08:59:38.445Z,98291.72
2024-01-16T09:00:41.288Z,98283.89
2024-01-16T09:01:43.409Z,98289.88
2024-01-16T09:02:45.770Z,98293.23
2024-01-16T09:03:47.969Z,98287.83
2024-01-16T09:04:50.786Z,98292.94
2024-01-16T09:05:53.291Z,98297.06
2024-01-16T09:06:55.787Z,98297.69
2024-01-16T09:07:58.998Z,98294.91
2024-01-16T09:09:01.301Z,98314.77
2024-01-16T09:10:04.690Z,98301.08
2024-01-16T09:11:06.954Z,98299.56
2024-01-16T09:12:10.002Z,98305.99
2024-01-16T09:13:12.407Z,98304.88
2024-01-16T09:14:14.601Z,98299.73
2024-01-16T09:15:19.537Z,98303.84
2024-01-16T09:16:22.359Z,98310.37
2024-01-16T09:17:24.563Z,98303.20
2024-01-16T09:18:27.011Z,98321.12
2024-01-16T09:19:30.356Z,98320.09
2024-01-16T09:20:33.167Z,98306.19
2024-01-16T09:21:35.908Z,98311.52
2024-01-16T09:22:38.468Z,98323.06
2024-01-16T09:23:40.717Z,98313.94
2024-01-16T09:24:42.982Z,98318.84
2024-01-16T09:25:47.762Z,98319.20
2024-01-16T09:26:49.913Z,98308.30
2024-01-16T09:27:52.326Z,98304.95
2024-01-16T09:28:54.593Z,98307.63
2024-01-16T09:29:57.050Z,98309.96
2024-01-16T09:30:59.845Z,98314.37
2024-01-16T09:32:02.457Z,98320.40
2024-01-16T09:33:04.922Z,98312.85
2024-01-16T09:34:09.883Z,98313.03
2024-01-16T09:35:11.872Z,98324.59
2024-01-16T09:36:15.337Z,98316.37
2024-01-16T09:37:17.431Z,98321.02
2024-01-16T09:38:19.667Z,98322.86
2024-01-16T09:39:23.623Z,98307.20
2024-01-16T09:40:27.753Z,98316.55
2024-01-16T09:41:30.122Z,98310.31
2024-01-16T09:42:32.678Z,98310.03
2024-01-16T09:43:35.019Z,98309.78
2024-01-16T09:44:37.311Z,98310.42
2024-01-16T09:45:39.453Z,98308.59
2024-01-16T09:46:44.812Z,98314.55
2024-01-16T09:47:52.706Z,98314.27
2024-01-16T09:48:56.322Z,98316.41
2024-01-16T09:50:00.478Z,98317.92
2024-01-16T09:51:03.072Z,98315.21
2024-01-16T09:52:06.135Z,98314.19
2024-01-16T09:53:08.358Z,98309.81
2024-01-16T09:54:10.627Z,98318.38
2024-01-16T09:55:13.069Z,98327.23
2024-01-16T09:56:17.266Z,98310.66
2024-01-16T09:57:20.175Z,98320.17
2024-01-16T09:58:25.526Z,98314.00
2024-01-16T09:59:28.412Z,98321.77
2024-01-16T10:00:31.799Z,98320.07
2024-01-16T10:01:35.287Z,98309.92
2024-01-16T10:02:39.892Z,98311.50
2024-01-16T10:03:45.214Z,98316.44
2024-01-16T10:04:47.575Z,98320.55
2024-01-16T10:05:50.160Z,98323.80
2024-01-16T10:06:55.288Z,98323.55
2024-01-16T10:07:59.158Z,98314.58
2024-01-16T10:09:01.471Z,98321.12
2024-01-16T10:10:04.598Z,98321.87
2024-01-16T10:11:06.864Z,98326.91
2024-01-16T10:12:09.720Z,98324.48
2024-01-16T10:13:12.757Z,98332.39
2024-01-16T10:14:15.812Z,98327.38
2024-01-16T10:15:20.302Z,98343.23
2024-01-16T10:16:26.001Z,98335.65
2024-01-16T10:17:39.525Z,98336.86
2024-01-16T10:18:42.682Z,98324.94
2024-01-16T10:19:54.379Z,98325.85
2024-01-16T10:20:57.294Z,98331.08
2024-01-16T10:22:04.270Z,98328.46
2024-01-16T10:24:19.538Z,98342.76
2024-01-16T10:25:21.805Z,98328.77
2024-01-16T10:26:28.229Z,98335.02
2024-01-16T10:28:44.551Z,98332.20
2024-01-16T10:29:56.994Z,98337.05
2024-01-16T10:31:05.223Z,98334.00
2024-01-16T10:32:09.661Z,98342.66
2024-01-16T10:33:15.738Z,98344.16
2024-01-16T10:34:26.731Z,98334.16
2024-01-16T10:35:29.836Z,98347.70
2024-01-16T10:36:32.542Z,98349.09
2024-01-16T10:37:48.210Z,98344.72
2024-01-16T10:38:50.514Z,98343.76
2024-01-16T10:39:52.724Z,98354.03
2024-01-16T10:41:09.585Z,98356.75
2024-01-16T10:42:13.739Z,98356.83
2024-01-16T10:43:18.041Z,98356.83
2024-01-16T10:44:21.466Z,98356.94
2024-01-16T10:45:23.992Z,98360.84
2024-01-16T10:46:26.359Z,98356.75
2024-01-16T10:47:29.061Z,98362.72
2024-01-16T10:48:31.664Z,98367.86
2024-01-16T10:49:42.792Z,98372.32
2024-01-16T10:50:39.328Z,98361.87
2024-01-16T10:51:44.209Z,98380.27
2024-01-16T10:54:04.078Z,98367.67
2024-01-16T10:55:08.484Z,98385.20
2024-01-16T10:56:11.964Z,98382.00
2024-01-16T10:57:15.297Z,98389.09
2024-01-16T10:58:23.379Z,98386.41
2024-01-16T10:59:26.503Z,98386.66
2024-01-16T11:00:32.058Z,98390.97
2024-01-16T11:01:36.298Z,98387.87
2024-01-16T11:03:56.833Z,98384.72
2024-01-16T11:04:59.906Z,98382.75
2024-01-16T11:06:03.041Z,98380.98
2024-01-16T11:07:06.658Z,98384.44
2024-01-16T11:08:09.462Z,98401.52
2024-01-16T11:09:14.332Z,98395.34
2024-01-16T11:10:20.388Z,98403.84
2024-01-16T11:11:23.159Z,98394.14
2024-01-16T11:12:25.508Z,98404.41
2024-01-16T11:13:28.081Z,98407.94
2024-01-16T11:14:31.574Z,98408.05
2024-01-16T11:15:33.931Z,98410.84
2024-01-16T11:16:36.999Z,98401.31
2024-01-16T11:17:39.836Z,98407.30
2024-01-16T11:18:42.365Z,98408.89
2024-01-16T11:20:01.776Z,98405.08
2024-01-16T11:21:03.128Z,98411.78
2024-01-16T11:21:54.350Z,98413.55
2024-01-16T11:22:57.463Z,98399.67
2024-01-16T11:23:59.964Z,98420.92
2024-01-16T11:25:13.890Z,98415.21
2024-01-16T11:26:35.201Z,98402.44
2024-01-16T11:27:38.607Z,98411.02
2024-01-16T11:28:41.051Z,98413.27
2024-01-16T11:29:43.506Z,98417.47
2024-01-16T11:30:47.859Z,98419.05
2024-01-16T11:31:50.423Z,98414.57
2024-01-16T11:32:53.021Z,98422.23
2024-01-16T11:33:55.754Z,98418.88
2024-01-16T11:34:58.380Z,98408.61
2024-01-16T11:36:01.441Z,98421.59
2024-01-16T11:37:06.279Z,98425.87
2024-01-16T11:38:17.120Z,98422.23
2024-01-16T11:39:21.751Z,98430.73
2024-01-16T11:40:25.970Z,98433.23
2024-01-16T11:41:57.860Z,98421.02
2024-01-16T11:43:20.525Z,98439.23
2024-01-16T11:44:44.401Z,98434.19
2024-01-16T11:45:49.907Z,98435.22
2024-01-16T11:47:02.383Z,98449.02
2024-01-16T11:49:20.774Z,98441.74
2024-01-16T11:50:28.920Z,98449.66
2024-01-16T11:51:31.509Z,98448.24
2024-01-16T11:52:44.215Z,98445.80
2024-01-16T11:53:46.682Z,98449.27
2024-01-16T11:54:48.826Z,98454.38
2024-01-16T11:55:55.090Z,98463.06
2024-01-16T11:57:21.045Z,98456.08
2024-01-16T11:58:53.168Z,98461.13
2024-01-16T12:01:13.473Z,98463.84
2024-01-16T12:02:30.735Z,98458.58
2024-01-16T12:03:35.559Z,98456.64
2024-01-16T12:04:37.344Z,98472.31
2024-01-16T12:05:39.577Z,98487.31
2024-01-16T12:06:42.322Z,98477.98
2024-01-16T12:07:49.623Z,98483.11
2024-01-16T12:08:51.976Z,98480.42
2024-01-16T12:10:02.526Z,98481.17
2024-01-16T12:11:05.079Z,98483.78
2024-01-16T12:12:07.499Z,98487.59
2024-01-16T12:13:12.785Z,98494.11
2024-01-16T12:14:15.233Z,98488.27
2024-01-16T12:15:19.293Z,98498.14
2024-01-16T12:16:22.505Z,98487.13
2024-01-16T12:17:24.715Z,98495.23
2024-01-16T12:18:34.411Z,98490.02
2024-01-16T12:19:31.139Z,98510.96
2024-01-16T12:20:37.777Z,98494.55
2024-01-16T12:21:44.262Z,98500.80
2024-01-16T12:22:46.481Z,98503.30
2024-01-16T12:23:56.368Z,98507.61
2024-01-16T12:24:58.377Z,98498.08
2024-01-16T12:26:03.827Z,98512.73
2024-01-16T12:27:08.043Z,98503.06
2024-01-16T12:28:11.180Z,98508.11
2024-01-16T12:29:21.256Z,98511.37
2024-01-16T12:30:30.017Z,98518.45
2024-01-16T12:31:34.165Z,98512.31